Time;durP1;ratioP1;P1;durP2;ratioP2;P2;SDS_P1;SDS_P2;PMS_P1;PMS_P2;Temp;Humidity;BMP_temperature;BMP_pressure;BME280_temperature;BME280_humidity;BME280_pressure;Samples;Min_cycle;Max_cycle;Signal;HPM_P1;HPM_P2
2021/06/09 00:01:26;;;;;;;1.20;1.00;;;;;;;;;;5024036;28;20162;-52
2021/06/09 00:03:52;;;;;;;1.60;1.08;;;;;;;;;;5021837;28;20108;-50
2021/06/09 00:06:18;;;;;;;1.15;1.00;;;;;;;;;;5023634;28;20381;-54
2021/06/09 00:08:44;;;;;;;1.33;1.00;;;;;;;;;;5021636;28;20026;-49
2021/06/09 00:11:10;;;;;;;2.10;0.80;;;;;;;;;;5035036;28;20370;-49
2021/06/09 00:13:37;;;;;;;1.10;0.90;;;;;;;;;;5028821;28;20149;-49
2021/06/09 00:16:04;;;;;;;1.65;0.98;;;;;;;;;;5028768;28;20025;-51
2021/06/09 00:18:30;;;;;;;3.75;1.17;;;;;;;;;;5017518;28;20540;-50
2021/06/09 00:20:56;;;;;;;1.35;1.00;;;;;;;;;;5024109;28;20021;-51
2021/06/09 00:23:27;;;;;;;1.85;0.80;;;;;;;;;;5014994;28;20034;-50
2021/06/09 00:25:54;;;;;;;1.10;1.00;;;;;;;;;;5014659;28;20029;-49
2021/06/09 00:28:20;;;;;;;1.08;0.80;;;;;;;;;;5014336;28;20131;-50
2021/06/09 00:30:47;;;;;;;2.45;0.90;;;;;;;;;;5014433;28;20038;-49
2021/06/09 00:33:13;;;;;;;1.60;0.90;;;;;;;;;;5014292;28;20038;-49
2021/06/09 00:35:39;;;;;;;8.25;1.10;;;;;;;;;;5014178;28;20106;-50
2021/06/09 00:38:05;;;;;;;3.05;1.10;;;;;;;;;;5013685;28;20120;-49
2021/06/09 00:40:32;;;;;;;1.50;1.10;;;;;;;;;;5013774;28;20029;-51
2021/06/09 00:43:09;;;;;;;1.00;0.80;;;;;;;;;;5013648;28;20524;-50
2021/06/09 00:45:36;;;;;;;2.03;0.98;;;;;;;;;;5013669;28;20049;-51
2021/06/09 00:48:02;;;;;;;1.80;0.77;;;;;;;;;;5014200;28;20174;-51
2021/06/09 00:50:28;;;;;;;1.77;0.80;;;;;;;;;;5015018;28;20557;-53
2021/06/09 00:52:54;;;;;;;1.40;0.90;;;;;;;;;;5013908;28;20201;-51
2021/06/09 00:55:20;;;;;;;1.73;1.13;;;;;;;;;;5013840;28;20474;-49
2021/06/09 00:57:49;;;;;;;2.78;1.30;;;;;;;;;;5009493;28;20068;-52
2021/06/09 01:00:15;;;;;;;2.80;1.15;;;;;;;;;;5014066;28;20105;-50
2021/06/09 01:02:41;;;;;;;2.60;1.23;;;;;;;;;;5013635;28;20036;-50
2021/06/09 01:05:07;;;;;;;1.80;1.05;;;;;;;;;;5013608;28;20026;-54
2021/06/09 01:07:39;;;;;;;1.23;0.90;;;;;;;;;;5013673;28;20025;-51
2021/06/09 01:10:06;;;;;;;3.80;1.35;;;;;;;;;;5024550;28;20030;-50
2021/06/09 01:12:33;;;;;;;6.53;1.13;;;;;;;;;;5012526;28;20144;-49
2021/06/09 01:15:00;;;;;;;4.30;1.30;;;;;;;;;;5014813;28;20167;-50
2021/06/09 01:17:26;;;;;;;1.63;1.38;;;;;;;;;;5012861;28;20044;-50
2021/06/09 01:19:52;;;;;;;2.22;1.00;;;;;;;;;;5013381;28;20391;-49
2021/06/09 01:22:18;;;;;;;1.50;1.00;;;;;;;;;;5016679;28;20045;-49
2021/06/09 01:24:44;;;;;;;2.65;1.13;;;;;;;;;;5016381;28;20173;-51
2021/06/09 01:27:11;;;;;;;1.73;0.98;;;;;;;;;;5013075;28;20045;-49
2021/06/09 01:29:37;;;;;;;1.83;1.17;;;;;;;;;;5013589;28;20080;-50
2021/06/09 01:32:04;;;;;;;3.85;1.17;;;;;;;;;;5012931;28;20052;-51
2021/06/09 01:34:30;;;;;;;2.30;1.20;;;;;;;;;;5020165;28;20041;-49
2021/06/09 01:36:56;;;;;;;1.20;1.10;;;;;;;;;;5011266;28;20025;-52
2021/06/09 01:39:22;;;;;;;2.35;1.20;;;;;;;;;;5007818;28;20038;-52
2021/06/09 01:41:49;;;;;;;3.53;1.15;;;;;;;;;;5013818;28;20037;-50
2021/06/09 01:44:15;;;;;;;2.80;1.23;;;;;;;;;;5013087;28;20037;-49
2021/06/09 01:46:42;;;;;;;1.50;1.08;;;;;;;;;;5011770;28;20104;-49
2021/06/09 01:49:09;;;;;;;2.75;1.20;;;;;;;;;;5013656;28;20474;-51
2021/06/09 01:51:35;;;;;;;2.50;1.10;;;;;;;;;;5012665;28;20054;-52
2021/06/09 01:54:05;;;;;;;7.50;1.13;;;;;;;;;;5014096;28;20467;-53
2021/06/09 01:56:31;;;;;;;1.85;0.90;;;;;;;;;;5011914;28;20045;-50
2021/06/09 01:58:57;;;;;;;4.60;1.25;;;;;;;;;;5012660;28;20018;-52
2021/06/09 02:01:23;;;;;;;1.75;1.40;;;;;;;;;;5014254;28;20373;-52
2021/06/09 02:03:49;;;;;;;2.65;1.13;;;;;;;;;;5012932;28;20109;-49
2021/06/09 02:06:15;;;;;;;2.42;1.10;;;;;;;;;;5012124;28;20079;-50
2021/06/09 02:08:41;;;;;;;2.20;1.52;;;;;;;;;;5013124;28;20083;-54
2021/06/09 02:11:07;;;;;;;1.65;1.20;;;;;;;;;;5012637;28;20030;-51
2021/06/09 02:13:35;;;;;;;3.10;1.60;;;;;;;;;;5012549;28;20100;-50
2021/06/09 02:16:01;;;;;;;7.28;1.60;;;;;;;;;;5012188;28;20038;-50
2021/06/09 02:18:28;;;;;;;1.50;1.20;;;;;;;;;;5012296;28;20116;-52
2021/06/09 02:20:56;;;;;;;4.47;1.45;;;;;;;;;;5012096;28;20072;-49
2021/06/09 02:23:27;;;;;;;2.95;1.70;;;;;;;;;;5019684;28;20049;-52
2021/06/09 02:25:56;;;;;;;1.58;1.25;;;;;;;;;;5013594;28;20030;-52
2021/06/09 02:28:23;;;;;;;1.42;1.05;;;;;;;;;;5012269;28;20029;-49
2021/06/09 02:30:49;;;;;;;1.67;1.30;;;;;;;;;;5011850;28;20026;-49
2021/06/09 02:33:16;;;;;;;1.55;1.27;;;;;;;;;;5014940;28;20172;-51
2021/06/09 02:35:43;;;;;;;1.30;1.20;;;;;;;;;;5007996;28;20022;-50
2021/06/09 02:38:10;;;;;;;1.20;1.10;;;;;;;;;;5023234;28;20030;-50
2021/06/09 02:40:37;;;;;;;1.35;1.20;;;;;;;;;;5019900;28;20029;-49
2021/06/09 02:43:03;;;;;;;2.63;1.33;;;;;;;;;;5030916;28;20129;-49
2021/06/09 02:45:29;;;;;;;2.35;1.42;;;;;;;;;;5016004;28;20153;-54
2021/06/09 02:47:57;;;;;;;1.67;1.25;;;;;;;;;;5011764;28;20042;-49
2021/06/09 02:50:23;;;;;;;1.65;1.25;;;;;;;;;;5010885;28;20458;-51
2021/06/09 02:53:02;;;;;;;3.65;1.70;;;;;;;;;;5019295;28;20105;-49
2021/06/09 02:55:47;;;;;;;4.53;1.48;;;;;;;;;;5011487;28;20033;-50
2021/06/09 02:58:24;;;;;;;1.90;1.40;;;;;;;;;;5023722;28;20053;-54
2021/06/09 03:00:55;;;;;;;1.85;1.35;;;;;;;;;;5030963;28;20102;-50
2021/06/09 03:03:26;;;;;;;2.75;1.48;;;;;;;;;;5030131;28;20037;-51
2021/06/09 03:05:57;;;;;;;1.45;1.17;;;;;;;;;;5012510;28;20022;-49
2021/06/09 03:08:41;;;;;;;4.00;1.55;;;;;;;;;;5027688;28;20036;-50
2021/06/09 03:11:08;;;;;;;2.65;1.45;;;;;;;;;;5031599;28;20080;-54
2021/06/09 03:13:51;;;;;;;2.88;1.67;;;;;;;;;;5031213;28;20683;-49
2021/06/09 03:16:20;;;;;;;1.70;1.30;;;;;;;;;;5027860;28;20097;-49
2021/06/09 03:18:48;;;;;;;1.73;1.35;;;;;;;;;;5017908;28;20037;-49
2021/06/09 03:21:19;;;;;;;1.80;1.52;;;;;;;;;;5015608;28;20556;-49
2021/06/09 03:23:47;;;;;;;2.58;1.65;;;;;;;;;;5031022;28;20347;-49
2021/06/09 03:26:17;;;;;;;2.83;1.85;;;;;;;;;;5015422;28;20036;-50
2021/06/09 03:29:02;;;;;;;3.97;1.77;;;;;;;;;;5011497;28;20129;-49
2021/06/09 03:31:32;;;;;;;1.98;1.52;;;;;;;;;;5012638;28;20435;-50
2021/06/09 03:33:59;;;;;;;3.00;1.45;;;;;;;;;;5015267;28;20022;-52
2021/06/09 03:36:27;;;;;;;2.25;1.88;;;;;;;;;;5027347;28;20018;-49
2021/06/09 03:38:55;;;;;;;2.55;1.60;;;;;;;;;;5012437;28;20049;-49
2021/06/09 03:41:23;;;;;;;2.13;1.55;;;;;;;;;;5016964;28;20117;-49
2021/06/09 03:43:53;;;;;;;7.40;1.80;;;;;;;;;;5015228;28;20049;-53
2021/06/09 03:46:23;;;;;;;2.72;1.67;;;;;;;;;;5014881;28;20094;-49
2021/06/09 03:48:51;;;;;;;2.53;1.88;;;;;;;;;;5022937;28;20029;-54
2021/06/09 03:51:17;;;;;;;2.15;1.55;;;;;;;;;;5014709;28;20088;-54
2021/06/09 03:53:44;;;;;;;2.75;1.77;;;;;;;;;;5014852;28;20112;-51
2021/06/09 03:56:12;;;;;;;2.00;1.58;;;;;;;;;;5008958;28;20504;-49
2021/06/09 03:58:39;;;;;;;3.35;1.45;;;;;;;;;;5014523;28;20030;-49
2021/06/09 04:01:06;;;;;;;2.63;1.55;;;;;;;;;;5014939;28;20021;-49
2021/06/09 04:03:33;;;;;;;2.55;1.58;;;;;;;;;;5014573;28;20413;-49
2021/06/09 04:06:00;;;;;;;1.92;1.60;;;;;;;;;;5014295;28;20470;-52
2021/06/09 04:08:26;;;;;;;4.03;1.88;;;;;;;;;;5017644;28;21524;-49
2021/06/09 04:10:54;;;;;;;2.22;1.70;;;;;;;;;;5020475;28;20084;-50
2021/06/09 04:13:21;;;;;;;2.83;1.50;;;;;;;;;;5009996;28;20477;-50
2021/06/09 04:15:50;;;;;;;5.82;1.55;;;;;;;;;;5022931;28;20448;-49
2021/06/09 04:18:17;;;;;;;2.75;1.92;;;;;;;;;;5014185;28;20372;-49
2021/06/09 04:20:43;;;;;;;2.15;1.60;;;;;;;;;;5014360;28;20117;-49
2021/06/09 04:23:10;;;;;;;4.72;1.95;;;;;;;;;;5013807;28;20029;-49
2021/06/09 04:25:36;;;;;;;2.33;1.88;;;;;;;;;;5015496;28;20040;-53
2021/06/09 04:28:03;;;;;;;2.80;1.33;;;;;;;;;;5017886;28;20029;-55
2021/06/09 04:30:29;;;;;;;2.15;1.80;;;;;;;;;;5016283;28;20096;-49
2021/06/09 04:32:59;;;;;;;2.25;1.58;;;;;;;;;;5016781;28;20694;-53
2021/06/09 04:35:27;;;;;;;3.20;1.83;;;;;;;;;;5013904;28;20045;-50
2021/06/09 04:37:53;;;;;;;2.00;1.50;;;;;;;;;;5014299;28;20046;-52
2021/06/09 04:40:20;;;;;;;2.05;1.60;;;;;;;;;;5017345;28;20026;-52
2021/06/09 04:42:47;;;;;;;2.42;1.42;;;;;;;;;;5017875;28;20420;-49
2021/06/09 04:45:14;;;;;;;4.75;1.88;;;;;;;;;;5013277;28;20375;-49
2021/06/09 04:47:40;;;;;;;2.03;1.58;;;;;;;;;;5019469;28;20030;-49
2021/06/09 04:50:06;;;;;;;4.60;1.63;;;;;;;;;;5020703;28;20120;-49
2021/06/09 04:52:32;;;;;;;4.80;1.50;;;;;;;;;;5015953;28;20064;-49
2021/06/09 04:54:58;;;;;;;2.97;1.40;;;;;;;;;;5020982;28;20481;-50
2021/06/09 04:57:24;;;;;;;1.80;1.60;;;;;;;;;;5019812;28;20171;-49
2021/06/09 04:59:50;;;;;;;8.18;1.80;;;;;;;;;;5022634;28;20034;-49
2021/06/09 05:02:18;;;;;;;2.00;1.20;;;;;;;;;;5023246;28;20022;-50
2021/06/09 05:04:44;;;;;;;4.68;1.63;;;;;;;;;;5018073;28;20136;-49
2021/06/09 05:07:10;;;;;;;2.50;1.65;;;;;;;;;;5018381;28;20026;-53
2021/06/09 05:09:36;;;;;;;2.90;1.80;;;;;;;;;;5018411;28;20029;-54
2021/06/09 05:12:26;;;;;;;2.60;1.67;;;;;;;;;;5020324;28;20038;-51
2021/06/09 05:14:54;;;;;;;4.50;1.60;;;;;;;;;;5010115;28;20125;-52
2021/06/09 05:17:22;;;;;;;3.15;1.77;;;;;;;;;;5016666;28;20038;-54
2021/06/09 05:19:50;;;;;;;7.53;1.90;;;;;;;;;;5022251;28;20064;-53
2021/06/09 05:22:22;;;;;;;4.38;1.67;;;;;;;;;;5020391;28;20030;-50
2021/06/09 05:24:48;;;;;;;3.58;1.63;;;;;;;;;;5012572;28;20034;-52
2021/06/09 05:27:16;;;;;;;2.70;1.60;;;;;;;;;;5015388;28;20117;-53
2021/06/09 05:29:45;;;;;;;2.50;1.73;;;;;;;;;;5016538;28;20521;-54
2021/06/09 05:32:11;;;;;;;2.80;1.73;;;;;;;;;;5013462;28;20038;-50
2021/06/09 05:34:39;;;;;;;3.35;1.70;;;;;;;;;;5016171;28;20061;-52
2021/06/09 05:37:06;;;;;;;4.05;1.63;;;;;;;;;;5019763;28;20033;-50
2021/06/09 05:39:33;;;;;;;3.15;1.50;;;;;;;;;;5014348;28;20547;-50
2021/06/09 05:42:00;;;;;;;3.17;1.63;;;;;;;;;;5030634;28;20708;-52
2021/06/09 05:44:29;;;;;;;2.40;1.48;;;;;;;;;;5022253;28;20029;-54
2021/06/09 05:46:58;;;;;;;1.70;1.20;;;;;;;;;;5025716;28;20121;-51
2021/06/09 05:49:24;;;;;;;4.20;1.35;;;;;;;;;;5022750;28;20082;-52
2021/06/09 05:51:51;;;;;;;1.95;1.42;;;;;;;;;;5032570;28;20064;-52
2021/06/09 05:54:17;;;;;;;2.42;1.30;;;;;;;;;;5026461;28;20116;-50
2021/06/09 05:56:43;;;;;;;4.72;1.75;;;;;;;;;;5015223;28;20033;-53
2021/06/09 05:59:10;;;;;;;2.67;1.40;;;;;;;;;;5022730;28;20466;-50
2021/06/09 06:01:36;;;;;;;1.70;1.40;;;;;;;;;;5018880;28;20021;-50
2021/06/09 06:04:02;;;;;;;3.35;1.60;;;;;;;;;;5032433;28;20531;-52
2021/06/09 06:06:28;;;;;;;2.63;1.30;;;;;;;;;;5029194;28;20021;-50
2021/06/09 06:08:55;;;;;;;2.60;1.30;;;;;;;;;;5032391;28;20041;-49
2021/06/09 06:11:21;;;;;;;4.75;1.50;;;;;;;;;;5019248;28;20075;-51
2021/06/09 06:13:47;;;;;;;3.00;1.40;;;;;;;;;;5020978;28;20477;-50
2021/06/09 06:16:16;;;;;;;4.10;1.38;;;;;;;;;;5030031;28;20029;-53
2021/06/09 06:18:44;;;;;;;1.92;1.27;;;;;;;;;;5032200;28;20036;-52
2021/06/09 06:21:11;;;;;;;1.90;1.30;;;;;;;;;;5016527;28;20781;-55
2021/06/09 06:23:38;;;;;;;1.80;1.20;;;;;;;;;;5031091;28;20029;-55
2021/06/09 06:26:04;;;;;;;4.50;1.52;;;;;;;;;;5019376;28;20042;-54
2021/06/09 06:28:32;;;;;;;4.55;1.40;;;;;;;;;;5024970;28;20036;-52
2021/06/09 06:30:58;;;;;;;3.83;1.30;;;;;;;;;;5026240;28;20030;-52
2021/06/09 06:33:25;;;;;;;5.75;1.70;;;;;;;;;;5012123;28;20026;-53
2021/06/09 06:35:51;;;;;;;4.80;1.73;;;;;;;;;;5011788;28;20041;-51
2021/06/09 06:38:19;;;;;;;4.80;1.35;;;;;;;;;;5017474;28;20124;-51
2021/06/09 06:40:45;;;;;;;1.90;1.23;;;;;;;;;;5013125;28;20025;-52
2021/06/09 06:43:11;;;;;;;3.45;1.40;;;;;;;;;;5011299;28;20029;-54
2021/06/09 06:45:38;;;;;;;4.18;1.75;;;;;;;;;;5011558;28;20152;-50
2021/06/09 06:48:05;;;;;;;2.80;1.58;;;;;;;;;;5017324;28;20041;-52
2021/06/09 06:50:31;;;;;;;5.03;1.70;;;;;;;;;;5011763;28;20041;-53
2021/06/09 06:52:57;;;;;;;4.93;1.67;;;;;;;;;;5012035;28;20113;-53
2021/06/09 06:55:24;;;;;;;4.85;1.85;;;;;;;;;;5011699;28;20544;-55
2021/06/09 06:57:50;;;;;;;2.80;1.52;;;;;;;;;;5014590;28;20029;-51
2021/06/09 07:00:18;;;;;;;2.85;1.55;;;;;;;;;;5012539;28;20079;-53
2021/06/09 07:02:48;;;;;;;5.78;1.73;;;;;;;;;;5011530;28;20379;-50
2021/06/09 07:05:15;;;;;;;4.15;1.77;;;;;;;;;;5011586;28;20018;-49
2021/06/09 07:07:41;;;;;;;2.95;1.55;;;;;;;;;;5015175;28;20026;-50
2021/06/09 07:10:09;;;;;;;2.50;1.13;;;;;;;;;;5016017;28;20018;-50
2021/06/09 07:12:45;;;;;;;4.32;1.70;;;;;;;;;;5014956;28;20026;-50
2021/06/09 07:15:15;;;;;;;6.15;1.67;;;;;;;;;;5015396;28;20433;-50
2021/06/09 07:17:42;;;;;;;3.13;1.33;;;;;;;;;;5015895;28;20026;-50
2021/06/09 07:20:11;;;;;;;3.17;1.10;;;;;;;;;;5016659;28;20033;-49
2021/06/09 07:22:38;;;;;;;3.53;1.42;;;;;;;;;;5019837;28;20033;-50
2021/06/09 07:25:05;;;;;;;6.18;1.73;;;;;;;;;;5025149;28;20130;-51
2021/06/09 07:27:33;;;;;;;4.15;1.20;;;;;;;;;;5016433;28;20529;-51
2021/06/09 07:30:00;;;;;;;2.33;1.17;;;;;;;;;;5013345;28;20164;-55
2021/06/09 07:32:27;;;;;;;3.92;1.38;;;;;;;;;;5013258;28;20541;-56
2021/06/09 07:34:53;;;;;;;6.70;1.30;;;;;;;;;;5024650;28;20462;-53
2021/06/09 07:37:20;;;;;;;5.88;1.38;;;;;;;;;;5020219;28;20033;-50
2021/06/09 07:39:50;;;;;;;1.88;0.95;;;;;;;;;;5030136;28;20029;-55
2021/06/09 07:42:17;;;;;;;4.20;1.33;;;;;;;;;;5022239;28;20033;-54
2021/06/09 07:44:50;;;;;;;2.03;0.95;;;;;;;;;;5023599;28;20129;-52
2021/06/09 07:47:16;;;;;;;1.42;0.90;;;;;;;;;;5033804;28;20013;-51
2021/06/09 07:49:43;;;;;;;3.67;1.25;;;;;;;;;;5030795;28;20108;-52
2021/06/09 07:52:09;;;;;;;2.55;0.90;;;;;;;;;;5028185;28;20452;-50
2021/06/09 07:54:36;;;;;;;1.40;0.80;;;;;;;;;;5015008;28;20030;-51
2021/06/09 07:57:04;;;;;;;1.35;0.82;;;;;;;;;;5020761;28;20141;-52
2021/06/09 07:59:30;;;;;;;3.95;0.88;;;;;;;;;;5034968;28;20519;-52
2021/06/09 08:01:56;;;;;;;4.28;1.00;;;;;;;;;;5021318;28;20049;-50
2021/06/09 08:04:23;;;;;;;1.85;0.82;;;;;;;;;;5020562;28;20481;-50
2021/06/09 08:06:49;;;;;;;2.38;0.70;;;;;;;;;;5031193;28;20024;-55
2021/06/09 08:09:15;;;;;;;2.67;1.00;;;;;;;;;;5022126;28;20101;-54
2021/06/09 08:11:42;;;;;;;1.60;1.00;;;;;;;;;;5013585;28;20048;-50
2021/06/09 08:14:08;;;;;;;3.72;0.70;;;;;;;;;;5014633;28;20053;-54
2021/06/09 08:16:36;;;;;;;4.97;1.00;;;;;;;;;;5016183;28;20061;-52
2021/06/09 08:19:06;;;;;;;1.08;0.68;;;;;;;;;;5031222;28;20073;-55
2021/06/09 08:21:32;;;;;;;2.67;1.02;;;;;;;;;;5023374;28;20079;-56
2021/06/09 08:23:58;;;;;;;0.80;0.80;;;;;;;;;;5020531;28;20064;-52
2021/06/09 08:26:25;;;;;;;1.23;0.63;;;;;;;;;;5020172;28;20030;-55
2021/06/09 08:28:52;;;;;;;3.67;0.88;;;;;;;;;;5029473;28;20025;-50
2021/06/09 08:31:19;;;;;;;2.28;0.70;;;;;;;;;;5017529;28;20129;-51
2021/06/09 08:33:46;;;;;;;3.40;1.10;;;;;;;;;;5014474;28;20041;-51
2021/06/09 08:36:14;;;;;;;1.55;0.90;;;;;;;;;;5022452;28;20489;-52
2021/06/09 08:38:40;;;;;;;1.63;0.70;;;;;;;;;;5027245;28;20482;-50
2021/06/09 08:41:08;;;;;;;3.38;1.00;;;;;;;;;;5015642;28;20026;-53
2021/06/09 08:43:34;;;;;;;2.30;0.90;;;;;;;;;;5014162;28;20105;-53
2021/06/09 08:46:02;;;;;;;1.73;0.80;;;;;;;;;;5031880;28;20125;-56
2021/06/09 08:48:28;;;;;;;1.38;0.70;;;;;;;;;;5021454;28;20100;-51
2021/06/09 08:50:55;;;;;;;4.43;0.73;;;;;;;;;;5031499;28;20029;-55
2021/06/09 08:53:22;;;;;;;1.25;0.82;;;;;;;;;;5028704;28;20421;-52
2021/06/09 08:55:48;;;;;;;2.78;0.90;;;;;;;;;;5026179;28;20084;-55
2021/06/09 08:58:15;;;;;;;2.88;1.30;;;;;;;;;;5016719;28;20037;-52
2021/06/09 09:00:41;;;;;;;3.03;0.90;;;;;;;;;;5028506;28;20099;-52
2021/06/09 09:03:08;;;;;;;1.48;0.80;;;;;;;;;;5019651;28;20061;-54
2021/06/09 09:05:35;;;;;;;1.30;0.88;;;;;;;;;;5021724;28;20439;-51
2021/06/09 09:08:02;;;;;;;2.10;1.10;;;;;;;;;;5021757;28;20026;-50
2021/06/09 09:10:28;;;;;;;2.72;0.98;;;;;;;;;;5025172;28;20033;-50
2021/06/09 09:12:54;;;;;;;1.08;0.70;;;;;;;;;;5012761;28;20046;-53
2021/06/09 09:15:21;;;;;;;2.53;1.10;;;;;;;;;;5026391;28;20029;-56
2021/06/09 09:17:49;;;;;;;7.20;1.20;;;;;;;;;;5022156;28;20029;-56
2021/06/09 09:20:15;;;;;;;2.00;0.93;;;;;;;;;;5013427;28;20060;-52
2021/06/09 09:22:41;;;;;;;1.20;0.68;;;;;;;;;;5023297;28;20049;-52
2021/06/09 09:25:14;;;;;;;1.80;0.70;;;;;;;;;;5021708;28;20026;-53
2021/06/09 09:27:40;;;;;;;0.80;0.50;;;;;;;;;;5030152;28;20478;-53
2021/06/09 09:30:10;;;;;;;1.23;0.40;;;;;;;;;;5013109;28;20620;-54
2021/06/09 09:32:38;;;;;;;0.82;0.52;;;;;;;;;;5011564;28;20103;-54
2021/06/09 09:35:05;;;;;;;2.25;0.50;;;;;;;;;;5015697;28;20030;-52
2021/06/09 09:37:32;;;;;;;1.05;0.50;;;;;;;;;;5032334;28;20100;-51
2021/06/09 09:40:16;;;;;;;1.25;0.65;;;;;;;;;;5028880;28;20033;-51
2021/06/09 09:42:48;;;;;;;1.60;0.82;;;;;;;;;;5032237;28;20064;-54
2021/06/09 09:45:14;;;;;;;2.55;0.80;;;;;;;;;;5004586;28;20446;-55
2021/06/09 09:47:40;;;;;;;2.67;0.73;;;;;;;;;;5012376;28;20026;-52
2021/06/09 09:50:06;;;;;;;1.48;0.57;;;;;;;;;;5015603;28;20036;-52
2021/06/09 09:52:46;;;;;;;2.35;0.55;;;;;;;;;;5017518;28;20560;-55
2021/06/09 09:55:12;;;;;;;0.60;0.50;;;;;;;;;;5016582;28;20038;-50
2021/06/09 09:57:39;;;;;;;0.88;0.60;;;;;;;;;;5026398;28;20049;-52
2021/06/09 10:00:06;;;;;;;0.85;0.30;;;;;;;;;;5024211;28;20041;-51
2021/06/09 10:02:32;;;;;;;1.05;0.50;;;;;;;;;;5024117;28;20128;-50
2021/06/09 10:05:14;;;;;;;0.80;0.40;;;;;;;;;;5026904;28;20032;-50
2021/06/09 10:07:40;;;;;;;1.27;0.50;;;;;;;;;;5013821;28;20014;-51
2021/06/09 10:10:07;;;;;;;0.82;0.50;;;;;;;;;;5022556;28;20112;-52
2021/06/09 10:12:33;;;;;;;0.95;0.60;;;;;;;;;;5018546;28;20112;-53
2021/06/09 10:14:59;;;;;;;3.22;0.80;;;;;;;;;;5018670;28;20500;-52
2021/06/09 10:17:27;;;;;;;1.20;0.70;;;;;;;;;;5019238;28;20063;-52
2021/06/09 10:19:54;;;;;;;4.28;0.70;;;;;;;;;;5023821;28;20026;-51
2021/06/09 10:22:21;;;;;;;2.33;0.77;;;;;;;;;;5027524;28;20105;-55
2021/06/09 10:24:55;;;;;;;2.15;0.70;;;;;;;;;;5011397;28;20026;-54
2021/06/09 10:27:32;;;;;;;0.95;0.60;;;;;;;;;;5020637;28;20029;-53
2021/06/09 10:29:58;;;;;;;1.20;0.63;;;;;;;;;;5014314;28;20018;-54
2021/06/09 10:32:24;;;;;;;1.80;0.77;;;;;;;;;;5017244;28;20124;-54
2021/06/09 10:34:51;;;;;;;1.08;0.77;;;;;;;;;;5023778;28;20116;-55
2021/06/09 10:37:17;;;;;;;1.17;0.73;;;;;;;;;;5019779;28;20580;-50
2021/06/09 10:39:44;;;;;;;1.20;0.80;;;;;;;;;;5025383;28;20441;-50
2021/06/09 10:42:14;;;;;;;1.90;0.55;;;;;;;;;;5021108;28;20018;-52
2021/06/09 10:44:44;;;;;;;1.40;0.80;;;;;;;;;;5031248;28;20487;-51
2021/06/09 10:47:12;;;;;;;1.88;0.60;;;;;;;;;;5028416;28;20464;-52
2021/06/09 10:49:39;;;;;;;1.20;0.55;;;;;;;;;;5019906;28;20058;-53
2021/06/09 10:52:05;;;;;;;3.83;0.70;;;;;;;;;;5028705;28;20070;-54
2021/06/09 10:54:32;;;;;;;0.80;0.55;;;;;;;;;;5029325;28;20369;-52
2021/06/09 10:56:58;;;;;;;0.80;0.50;;;;;;;;;;5022415;28;20032;-50
2021/06/09 10:59:25;;;;;;;1.50;0.50;;;;;;;;;;5034392;28;20520;-51
2021/06/09 11:01:55;;;;;;;1.75;0.60;;;;;;;;;;5034712;28;20079;-54
2021/06/09 11:04:21;;;;;;;0.80;0.60;;;;;;;;;;5029497;28;20025;-52
2021/06/09 11:06:52;;;;;;;0.50;0.50;;;;;;;;;;5019877;28;20030;-51
2021/06/09 11:09:20;;;;;;;1.55;0.55;;;;;;;;;;5024122;28;20104;-51
2021/06/09 11:11:47;;;;;;;1.45;0.80;;;;;;;;;;5022447;28;20097;-52
2021/06/09 11:14:19;;;;;;;0.50;0.50;;;;;;;;;;5028486;28;20433;-50
2021/06/09 11:16:49;;;;;;;1.02;0.70;;;;;;;;;;5025636;28;20133;-53
2021/06/09 11:19:56;;;;;;;0.65;0.50;;;;;;;;;;5022705;28;20065;-51
2021/06/09 11:22:24;;;;;;;0.70;0.60;;;;;;;;;;4985865;28;20486;-55
2021/06/09 11:25:09;;;;;;;1.27;0.60;;;;;;;;;;5002024;28;20018;-52
2021/06/09 11:27:35;;;;;;;2.65;0.68;;;;;;;;;;5013747;28;20381;-53
2021/06/09 11:30:20;;;;;;;1.52;0.80;;;;;;;;;;5022278;28;20041;-54
2021/06/09 11:32:46;;;;;;;1.40;0.47;;;;;;;;;;5016840;28;20482;-52
2021/06/09 11:35:12;;;;;;;1.52;0.77;;;;;;;;;;5019363;28;20041;-50
2021/06/09 11:37:38;;;;;;;1.15;0.70;;;;;;;;;;5021629;28;20038;-52
2021/06/09 11:40:06;;;;;;;5.60;0.90;;;;;;;;;;5022581;28;20053;-50
2021/06/09 11:42:32;;;;;;;1.67;0.75;;;;;;;;;;5032285;28;20044;-51
2021/06/09 11:45:18;;;;;;;1.30;0.77;;;;;;;;;;5024954;28;20080;-50
2021/06/09 11:47:44;;;;;;;2.78;0.80;;;;;;;;;;5025050;28;20466;-50
2021/06/09 11:50:27;;;;;;;1.38;0.50;;;;;;;;;;5034333;28;20104;-52
2021/06/09 11:52:57;;;;;;;2.38;0.55;;;;;;;;;;5013158;28;20466;-51
2021/06/09 11:55:25;;;;;;;1.83;0.55;;;;;;;;;;4998158;28;20449;-51
2021/06/09 11:58:16;;;;;;;2.13;0.60;;;;;;;;;;5018328;28;20145;-51
2021/06/09 12:01:14;;;;;;;2.10;0.68;;;;;;;;;;5011157;28;20033;-52
2021/06/09 12:03:41;;;;;;;0.75;0.50;;;;;;;;;;5007770;28;20045;-53
2021/06/09 12:06:11;;;;;;;1.17;0.73;;;;;;;;;;5027298;28;20025;-53
2021/06/09 12:08:37;;;;;;;1.77;0.50;;;;;;;;;;5021318;28;20021;-52
2021/06/09 12:11:03;;;;;;;2.95;0.52;;;;;;;;;;5020919;28;20052;-55
2021/06/09 12:13:29;;;;;;;0.80;0.45;;;;;;;;;;5017654;28;20033;-53
2021/06/09 12:16:05;;;;;;;5.25;0.40;;;;;;;;;;5013426;28;20042;-52
2021/06/09 12:18:31;;;;;;;1.15;0.50;;;;;;;;;;5015253;28;20025;-51
2021/06/09 12:21:05;;;;;;;1.63;0.50;;;;;;;;;;5018381;28;20040;-56
2021/06/09 12:23:31;;;;;;;0.50;0.47;;;;;;;;;;5020585;28;20116;-53
2021/06/09 12:25:57;;;;;;;1.08;0.50;;;;;;;;;;5021552;28;20072;-51
2021/06/09 12:28:23;;;;;;;2.03;0.60;;;;;;;;;;5022306;28;20048;-52
2021/06/09 12:30:54;;;;;;;5.05;0.65;;;;;;;;;;5011605;28;20034;-52
2021/06/09 12:33:20;;;;;;;0.95;0.60;;;;;;;;;;5019921;28;20044;-50
2021/06/09 12:35:46;;;;;;;1.25;0.60;;;;;;;;;;5017472;28;20022;-52
2021/06/09 12:38:13;;;;;;;0.77;0.30;;;;;;;;;;5017901;28;20030;-50
2021/06/09 12:40:40;;;;;;;1.48;0.55;;;;;;;;;;5017072;28;20034;-51
2021/06/09 12:43:09;;;;;;;1.48;0.50;;;;;;;;;;5018552;28;20041;-50
2021/06/09 12:45:37;;;;;;;0.63;0.30;;;;;;;;;;5021761;28;20357;-50
2021/06/09 12:48:04;;;;;;;0.55;0.40;;;;;;;;;;5015329;28;20109;-50
2021/06/09 12:50:33;;;;;;;6.50;0.40;;;;;;;;;;5020576;28;20485;-53
2021/06/09 12:53:01;;;;;;;0.60;0.30;;;;;;;;;;5024268;28;20489;-51
2021/06/09 12:55:32;;;;;;;0.55;0.30;;;;;;;;;;5021709;28;20026;-50
2021/06/09 12:58:02;;;;;;;0.68;0.30;;;;;;;;;;5021471;28;20025;-53
2021/06/09 13:00:33;;;;;;;0.55;0.30;;;;;;;;;;5014575;28;20328;-53
2021/06/09 13:03:18;;;;;;;0.52;0.28;;;;;;;;;;5010349;28;20442;-55
2021/06/09 13:05:48;;;;;;;0.57;0.30;;;;;;;;;;5014528;28;20492;-54
2021/06/09 13:08:15;;;;;;;1.75;0.40;;;;;;;;;;5020456;28;20376;-51
2021/06/09 13:10:43;;;;;;;0.40;0.30;;;;;;;;;;5015298;28;20181;-51
2021/06/09 13:13:11;;;;;;;0.30;0.20;;;;;;;;;;5018591;28;20782;-50
2021/06/09 13:15:37;;;;;;;1.95;0.50;;;;;;;;;;5022710;28;20037;-51
2021/06/09 13:18:07;;;;;;;1.05;0.25;;;;;;;;;;5012714;28;20033;-51
2021/06/09 13:20:34;;;;;;;0.70;0.40;;;;;;;;;;5007945;28;20029;-53
2021/06/09 13:23:03;;;;;;;0.88;0.30;;;;;;;;;;5018209;28;20409;-55
2021/06/09 13:25:32;;;;;;;0.50;0.30;;;;;;;;;;5022444;28;20029;-51
2021/06/09 13:27:58;;;;;;;0.60;0.32;;;;;;;;;;5032699;28;20025;-53
2021/06/09 13:30:24;;;;;;;0.40;0.30;;;;;;;;;;5020587;28;20022;-53
2021/06/09 13:32:51;;;;;;;0.77;0.30;;;;;;;;;;5012811;28;20053;-52
2021/06/09 13:35:23;;;;;;;1.75;0.40;;;;;;;;;;5006942;28;20125;-55
2021/06/09 13:37:50;;;;;;;3.53;0.50;;;;;;;;;;5010434;28;20358;-51
2021/06/09 13:40:24;;;;;;;0.98;0.30;;;;;;;;;;5012169;28;20041;-56
2021/06/09 13:42:56;;;;;;;0.60;0.20;;;;;;;;;;5015450;28;20374;-56
2021/06/09 13:45:24;;;;;;;0.53;0.30;;;;;;;;;;5015784;28;20034;-52
2021/06/09 13:47:50;;;;;;;2.33;0.35;;;;;;;;;;5020553;28;20033;-52
2021/06/09 13:50:22;;;;;;;2.17;0.40;;;;;;;;;;5031999;28;20110;-55
2021/06/09 13:52:48;;;;;;;2.05;0.38;;;;;;;;;;5030735;28;20504;-57
2021/06/09 13:55:17;;;;;;;1.15;0.40;;;;;;;;;;5021069;28;20104;-57
2021/06/09 13:57:53;;;;;;;0.43;0.20;;;;;;;;;;5020973;28;20034;-53
2021/06/09 14:00:26;;;;;;;0.63;0.20;;;;;;;;;;5019399;28;20370;-55
2021/06/09 14:02:52;;;;;;;1.33;0.47;;;;;;;;;;5019006;28;20034;-50
2021/06/09 14:05:21;;;;;;;2.38;0.38;;;;;;;;;;5014439;28;20029;-51
2021/06/09 14:07:54;;;;;;;1.05;0.30;;;;;;;;;;5010248;28;20030;-51
2021/06/09 14:10:22;;;;;;;0.80;0.25;;;;;;;;;;5012620;28;20457;-54
2021/06/09 14:12:49;;;;;;;2.92;0.55;;;;;;;;;;5019529;28;20021;-52
2021/06/09 14:15:18;;;;;;;0.47;0.17;;;;;;;;;;5020089;28;20053;-52
2021/06/09 14:17:45;;;;;;;0.60;0.30;;;;;;;;;;5015797;28;20533;-56
2021/06/09 14:20:24;;;;;;;1.10;0.30;;;;;;;;;;5007287;28;20030;-51
2021/06/09 14:22:55;;;;;;;0.57;0.20;;;;;;;;;;5010478;28;20104;-56
2021/06/09 14:25:22;;;;;;;0.30;0.13;;;;;;;;;;5015112;28;20037;-56
2021/06/09 14:27:48;;;;;;;0.30;0.20;;;;;;;;;;5026465;28;20512;-54
2021/06/09 14:30:15;;;;;;;0.68;0.20;;;;;;;;;;5016061;28;20072;-54
2021/06/09 14:33:00;;;;;;;2.83;0.20;;;;;;;;;;5016099;28;20038;-50
2021/06/09 14:35:27;;;;;;;2.65;0.30;;;;;;;;;;5013544;28;20029;-53
2021/06/09 14:37:53;;;;;;;1.50;0.30;;;;;;;;;;5012980;28;20034;-53
2021/06/09 14:40:19;;;;;;;0.95;0.40;;;;;;;;;;5014949;28;20077;-52
2021/06/09 14:42:45;;;;;;;0.65;0.30;;;;;;;;;;5021842;28;20061;-52
2021/06/09 14:45:18;;;;;;;0.63;0.40;;;;;;;;;;5022944;28;20017;-50
2021/06/09 14:48:14;;;;;;;0.60;0.30;;;;;;;;;;5007040;28;20141;-52
2021/06/09 14:50:33;;;;;;;0.52;0.30;;;;;;;;;;5031342;28;20041;-51